sensor_id;sensor_type;location;lat;lon;timestamp;pressure;altitude;pressure_sealevel;temperature;humidity
7478;BME280;3780;42.424;25.636;2022-07-11T00:02:05;98819.59;;;19.94;55.21
7478;BME280;3780;42.424;25.636;2022-07-11T00:04:32;98809.63;;;19.81;55.06
7478;BME280;3780;42.424;25.636;2022-07-11T00:06:58;98837.31;;;19.88;55.60
7478;BME280;3780;42.424;25.636;2022-07-11T00:09:24;98841.19;;;19.87;54.98
7478;BME280;3780;42.424;25.636;2022-07-11T00:11:49;98838.97;;;19.72;54.77
7478;BME280;3780;42.424;25.636;2022-07-11T00:14:16;98837.22;;;19.59;55.09
7478;BME280;3780;42.424;25.636;2022-07-11T00:16:41;98838.69;;;19.39;55.24
7478;BME280;3780;42.424;25.636;2022-07-11T00:19:07;98822.13;;;19.27;55.94
7478;BME280;3780;42.424;25.636;2022-07-11T00:21:33;98841.59;;;19.25;55.78
7478;BME280;3780;42.424;25.636;2022-07-11T00:24:00;98833.41;;;19.16;56.40
7478;BME280;3780;42.424;25.636;2022-07-11T00:26:26;98825.50;;;18.98;56.58
7478;BME280;3780;42.424;25.636;2022-07-11T00:28:51;98841.25;;;19.01;57.13
7478;BME280;3780;42.424;25.636;2022-07-11T00:31:17;98795.72;;;18.61;57.03
7478;BME280;3780;42.424;25.636;2022-07-11T00:33:42;98820.03;;;18.72;57.68
7478;BME280;3780;42.424;25.636;2022-07-11T00:36:08;98809.53;;;18.56;58.56
7478;BME280;3780;42.424;25.636;2022-07-11T00:38:33;98831.91;;;18.67;59.11
7478;BME280;3780;42.424;25.636;2022-07-11T00:40:59;98843.47;;;18.73;59.59
7478;BME280;3780;42.424;25.636;2022-07-11T00:43:32;98840.13;;;18.76;59.47
7478;BME280;3780;42.424;25.636;2022-07-11T00:45:59;98836.28;;;18.77;59.46
7478;BME280;3780;42.424;25.636;2022-07-11T00:48:25;98794.72;;;18.40;59.83
7478;BME280;3780;42.424;25.636;2022-07-11T00:50:51;98825.44;;;18.54;59.95
7478;BME280;3780;42.424;25.636;2022-07-11T00:53:19;98805.19;;;18.55;59.81
7478;BME280;3780;42.424;25.636;2022-07-11T00:55:44;98760.66;;;18.29;59.12
7478;BME280;3780;42.424;25.636;2022-07-11T00:58:11;98832.41;;;18.78;59.02
7478;BME280;3780;42.424;25.636;2022-07-11T01:00:37;98830.94;;;18.72;59.24
7478;BME280;3780;42.424;25.636;2022-07-11T01:03:03;98784.41;;;18.28;59.05
7478;BME280;3780;42.424;25.636;2022-07-11T01:05:29;98805.16;;;18.38;58.95
7478;BME280;3780;42.424;25.636;2022-07-11T01:07:54;98840.03;;;18.50;58.22
7478;BME280;3780;42.424;25.636;2022-07-11T01:10:20;98827.97;;;18.42;58.17
7478;BME280;3780;42.424;25.636;2022-07-11T01:12:45;98815.91;;;18.34;57.61
7478;BME280;3780;42.424;25.636;2022-07-11T01:15:13;98783.41;;;18.07;57.56
7478;BME280;3780;42.424;25.636;2022-07-11T01:17:39;98765.84;;;17.91;57.08
7478;BME280;3780;42.424;25.636;2022-07-11T01:20:05;98774.09;;;18.08;56.53
7478;BME280;3780;42.424;25.636;2022-07-11T01:22:35;98846.66;;;18.57;56.99
7478;BME280;3780;42.424;25.636;2022-07-11T01:25:01;98840.06;;;18.58;57.18
7478;BME280;3780;42.424;25.636;2022-07-11T01:27:28;98834.75;;;18.62;55.70
7478;BME280;3780;42.424;25.636;2022-07-11T01:29:54;98831.13;;;18.66;54.96
7478;BME280;3780;42.424;25.636;2022-07-11T01:32:20;98799.53;;;18.43;54.94
7478;BME280;3780;42.424;25.636;2022-07-11T01:34:46;98835.56;;;18.62;55.70
7478;BME280;3780;42.424;25.636;2022-07-11T01:37:12;98804.06;;;18.48;55.76
7478;BME280;3780;42.424;25.636;2022-07-11T01:39:38;98803.06;;;18.44;54.74
7478;BME280;3780;42.424;25.636;2022-07-11T01:42:04;98837.41;;;18.76;53.73
7478;BME280;3780;42.424;25.636;2022-07-11T01:44:30;98847.53;;;19.01;51.98
7478;BME280;3780;42.424;25.636;2022-07-11T01:46:58;98839.66;;;19.17;52.86
7478;BME280;3780;42.424;25.636;2022-07-11T01:49:24;98845.63;;;19.28;52.04
7478;BME280;3780;42.424;25.636;2022-07-11T01:51:55;98842.53;;;19.29;52.41
7478;BME280;3780;42.424;25.636;2022-07-11T01:54:20;98850.75;;;19.46;49.97
7478;BME280;3780;42.424;25.636;2022-07-11T01:56:46;98806.53;;;19.27;48.98
7478;BME280;3780;42.424;25.636;2022-07-11T01:59:12;98792.53;;;19.29;48.03
7478;BME280;3780;42.424;25.636;2022-07-11T02:01:37;98854.09;;;19.78;48.15
7478;BME280;3780;42.424;25.636;2022-07-11T02:04:03;98786.25;;;19.37;47.66
7478;BME280;3780;42.424;25.636;2022-07-11T02:06:28;98842.81;;;19.79;47.68
7478;BME280;3780;42.424;25.636;2022-07-11T02:08:54;98840.72;;;19.85;46.91
7478;BME280;3780;42.424;25.636;2022-07-11T02:11:19;98861.91;;;20.05;47.41
7478;BME280;3780;42.424;25.636;2022-07-11T02:13:45;98845.31;;;20.02;47.20
7478;BME280;3780;42.424;25.636;2022-07-11T02:16:10;98849.00;;;20.06;46.90
7478;BME280;3780;42.424;25.636;2022-07-11T02:18:36;98865.06;;;20.16;46.82
7478;BME280;3780;42.424;25.636;2022-07-11T02:21:01;98778.94;;;19.67;46.05
7478;BME280;3780;42.424;25.636;2022-07-11T02:23:27;98828.88;;;20.02;46.28
7478;BME280;3780;42.424;25.636;2022-07-11T02:25:53;98815.72;;;19.95;46.50
7478;BME280;3780;42.424;25.636;2022-07-11T02:28:19;98862.00;;;20.18;46.83
7478;BME280;3780;42.424;25.636;2022-07-11T02:30:45;98854.13;;;20.16;46.48
7478;BME280;3780;42.424;25.636;2022-07-11T02:33:13;98856.53;;;20.18;46.22
7478;BME280;3780;42.424;25.636;2022-07-11T02:35:45;98861.22;;;20.17;46.27
7478;BME280;3780;42.424;25.636;2022-07-11T02:38:14;98868.75;;;20.20;46.32
7478;BME280;3780;42.424;25.636;2022-07-11T02:40:40;98774.28;;;19.67;46.14
7478;BME280;3780;42.424;25.636;2022-07-11T02:43:06;98852.09;;;20.04;46.18
7478;BME280;3780;42.424;25.636;2022-07-11T02:45:32;98807.69;;;19.81;47.11
7478;BME280;3780;42.424;25.636;2022-07-11T02:47:57;98841.63;;;19.98;46.50
7478;BME280;3780;42.424;25.636;2022-07-11T02:50:29;98830.03;;;19.92;46.41
7478;BME280;3780;42.424;25.636;2022-07-11T02:53:23;98829.91;;;19.89;46.45
7478;BME280;3780;42.424;25.636;2022-07-11T02:55:49;98807.41;;;19.74;46.21
7478;BME280;3780;42.424;25.636;2022-07-11T02:58:15;98860.13;;;20.01;46.48
7478;BME280;3780;42.424;25.636;2022-07-11T03:00:40;98859.19;;;19.97;47.33
7478;BME280;3780;42.424;25.636;2022-07-11T03:03:06;98883.13;;;20.08;46.96
7478;BME280;3780;42.424;25.636;2022-07-11T03:05:31;98861.16;;;19.88;46.62
7478;BME280;3780;42.424;25.636;2022-07-11T03:07:57;98857.59;;;19.87;46.40
7478;BME280;3780;42.424;25.636;2022-07-11T03:10:22;98879.81;;;19.94;47.08
7478;BME280;3780;42.424;25.636;2022-07-11T03:12:54;98847.50;;;19.70;46.45
7478;BME280;3780;42.424;25.636;2022-07-11T03:15:22;98845.22;;;19.72;47.06
7478;BME280;3780;42.424;25.636;2022-07-11T03:17:48;98831.38;;;19.77;50.24
7478;BME280;3780;42.424;25.636;2022-07-11T03:20:16;98796.31;;;19.53;48.78
7478;BME280;3780;42.424;25.636;2022-07-11T03:22:42;98807.78;;;19.56;49.49
7478;BME280;3780;42.424;25.636;2022-07-11T03:25:08;98886.22;;;20.07;48.11
7478;BME280;3780;42.424;25.636;2022-07-11T03:27:34;98883.81;;;20.05;49.80
7478;BME280;3780;42.424;25.636;2022-07-11T03:29:59;98841.38;;;19.73;51.12
7478;BME280;3780;42.424;25.636;2022-07-11T03:32:25;98888.63;;;20.00;50.59
7478;BME280;3780;42.424;25.636;2022-07-11T03:34:55;98886.72;;;19.92;49.10
7478;BME280;3780;42.424;25.636;2022-07-11T03:37:39;98858.44;;;19.53;51.57
7478;BME280;3780;42.424;25.636;2022-07-11T03:40:06;98869.06;;;19.63;50.94
7478;BME280;3780;42.424;25.636;2022-07-11T03:42:32;98898.22;;;19.76;49.50
7478;BME280;3780;42.424;25.636;2022-07-11T03:45:08;98912.03;;;19.80;49.33
7478;BME280;3780;42.424;25.636;2022-07-11T03:47:33;98898.22;;;19.76;49.09
7478;BME280;3780;42.424;25.636;2022-07-11T03:50:02;98858.44;;;19.53;49.75
7478;BME280;3780;42.424;25.636;2022-07-11T03:52:28;98884.88;;;19.66;49.21
7478;BME280;3780;42.424;25.636;2022-07-11T03:54:54;98905.09;;;19.83;49.81
7478;BME280;3780;42.424;25.636;2022-07-11T03:57:19;98920.56;;;19.87;49.34
7478;BME280;3780;42.424;25.636;2022-07-11T03:59:45;98897.22;;;19.72;49.89
7478;BME280;3780;42.424;25.636;2022-07-11T04:02:10;98875.69;;;19.62;47.78
7478;BME280;3780;42.424;25.636;2022-07-11T04:04:35;98895.13;;;19.78;48.69
7478;BME280;3780;42.424;25.636;2022-07-11T04:07:01;98854.44;;;19.68;48.29
7478;BME280;3780;42.424;25.636;2022-07-11T04:09:26;98878.19;;;19.93;47.06
7478;BME280;3780;42.424;25.636;2022-07-11T04:11:52;98885.88;;;20.08;46.43
7478;BME280;3780;42.424;25.636;2022-07-11T04:14:18;98866.56;;;20.05;47.23
7478;BME280;3780;42.424;25.636;2022-07-11T04:16:43;98924.91;;;20.44;48.68
7478;BME280;3780;42.424;25.636;2022-07-11T04:19:09;98920.69;;;20.55;49.47
7478;BME280;3780;42.424;25.636;2022-07-11T04:21:34;98847.34;;;20.14;48.92
7478;BME280;3780;42.424;25.636;2022-07-11T04:24:00;98919.38;;;20.61;46.45
7478;BME280;3780;42.424;25.636;2022-07-11T04:26:26;98898.09;;;20.58;47.71
7478;BME280;3780;42.424;25.636;2022-07-11T04:28:52;98917.84;;;20.72;45.31
7478;BME280;3780;42.424;25.636;2022-07-11T04:31:17;98861.09;;;20.43;45.67
7478;BME280;3780;42.424;25.636;2022-07-11T04:33:42;98885.22;;;20.58;44.70
7478;BME280;3780;42.424;25.636;2022-07-11T04:36:08;98888.63;;;20.55;45.77
7478;BME280;3780;42.424;25.636;2022-07-11T04:38:33;98845.22;;;20.28;44.41
7478;BME280;3780;42.424;25.636;2022-07-11T04:40:59;98904.19;;;20.63;44.55
7478;BME280;3780;42.424;25.636;2022-07-11T04:43:24;98921.63;;;20.88;43.35
7478;BME280;3780;42.424;25.636;2022-07-11T04:45:50;98875.50;;;20.61;43.34
7478;BME280;3780;42.424;25.636;2022-07-11T04:48:15;98896.88;;;20.76;43.25
7478;BME280;3780;42.424;25.636;2022-07-11T04:50:44;98883.56;;;20.66;43.51
7478;BME280;3780;42.424;25.636;2022-07-11T04:53:10;98928.22;;;20.96;43.38
7478;BME280;3780;42.424;25.636;2022-07-11T04:55:37;98892.47;;;20.84;43.04
7478;BME280;3780;42.424;25.636;2022-07-11T04:58:08;98912.69;;;21.00;43.18
7478;BME280;3780;42.424;25.636;2022-07-11T05:00:35;98870.06;;;20.82;43.41
7478;BME280;3780;42.424;25.636;2022-07-11T05:03:01;98903.38;;;21.13;42.74
7478;BME280;3780;42.424;25.636;2022-07-11T05:05:26;98912.91;;;21.16;43.03
7478;BME280;3780;42.424;25.636;2022-07-11T05:07:53;98874.13;;;21.05;44.21
7478;BME280;3780;42.424;25.636;2022-07-11T05:10:18;98878.31;;;21.03;42.28
7478;BME280;3780;42.424;25.636;2022-07-11T05:12:44;98883.53;;;21.16;43.33
7478;BME280;3780;42.424;25.636;2022-07-11T05:15:10;98881.13;;;21.15;41.69
7478;BME280;3780;42.424;25.636;2022-07-11T05:17:35;98922.09;;;21.41;41.58
7478;BME280;3780;42.424;25.636;2022-07-11T05:20:01;98928.19;;;21.46;41.82
7478;BME280;3780;42.424;25.636;2022-07-11T05:22:26;98911.34;;;21.36;41.46
7478;BME280;3780;42.424;25.636;2022-07-11T05:24:55;98933.94;;;21.53;41.10
7478;BME280;3780;42.424;25.636;2022-07-11T05:27:21;98935.75;;;21.49;41.38
7478;BME280;3780;42.424;25.636;2022-07-11T05:29:46;98940.56;;;21.52;41.85
7478;BME280;3780;42.424;25.636;2022-07-11T05:32:12;98943.69;;;21.63;41.47
7478;BME280;3780;42.424;25.636;2022-07-11T05:34:38;98915.75;;;21.49;41.20
7478;BME280;3780;42.424;25.636;2022-07-11T05:37:04;98908.56;;;21.57;41.22
7478;BME280;3780;42.424;25.636;2022-07-11T05:39:29;98955.13;;;21.86;40.73
7478;BME280;3780;42.424;25.636;2022-07-11T05:41:55;98963.16;;;21.91;40.45
7478;BME280;3780;42.424;25.636;2022-07-11T05:44:20;98928.75;;;21.73;40.80
7478;BME280;3780;42.424;25.636;2022-07-11T05:46:46;98976.28;;;22.06;40.51
7478;BME280;3780;42.424;25.636;2022-07-11T05:49:12;98965.47;;;22.01;40.67
7478;BME280;3780;42.424;25.636;2022-07-11T05:51:38;98827.53;;;21.17;40.61
7478;BME280;3780;42.424;25.636;2022-07-11T05:54:04;98974.25;;;22.16;40.23
7478;BME280;3780;42.424;25.636;2022-07-11T05:56:30;98934.47;;;22.01;40.43
7478;BME280;3780;42.424;25.636;2022-07-11T05:58:56;98984.25;;;22.45;39.80
7478;BME280;3780;42.424;25.636;2022-07-11T06:01:22;98955.97;;;22.44;38.93
7478;BME280;3780;42.424;25.636;2022-07-11T06:03:48;98936.63;;;22.41;39.26
7478;BME280;3780;42.424;25.636;2022-07-11T06:06:14;98994.34;;;22.86;38.51
7478;BME280;3780;42.424;25.636;2022-07-11T06:08:39;98959.78;;;22.52;37.83
7478;BME280;3780;42.424;25.636;2022-07-11T06:11:12;98931.38;;;22.35;38.42
7478;BME280;3780;42.424;25.636;2022-07-11T06:13:39;99001.88;;;22.89;38.48
7478;BME280;3780;42.424;25.636;2022-07-11T06:16:06;99003.72;;;22.97;37.52
7478;BME280;3780;42.424;25.636;2022-07-11T06:18:33;98977.13;;;22.89;38.78
7478;BME280;3780;42.424;25.636;2022-07-11T06:20:59;98868.72;;;22.41;37.72
7478;BME280;3780;42.424;25.636;2022-07-11T06:23:24;99000.13;;;23.33;36.49
7478;BME280;3780;42.424;25.636;2022-07-11T06:25:50;98915.00;;;22.76;35.81
7478;BME280;3780;42.424;25.636;2022-07-11T06:28:15;99004.63;;;23.26;35.69
7478;BME280;3780;42.424;25.636;2022-07-11T06:30:41;99001.63;;;23.31;36.23
7478;BME280;3780;42.424;25.636;2022-07-11T06:33:06;99003.56;;;23.42;36.36
7478;BME280;3780;42.424;25.636;2022-07-11T06:35:32;98980.50;;;23.47;36.94
7478;BME280;3780;42.424;25.636;2022-07-11T06:37:57;98953.66;;;23.56;34.88
7478;BME280;3780;42.424;25.636;2022-07-11T06:40:23;99009.91;;;23.83;35.03
7478;BME280;3780;42.424;25.636;2022-07-11T06:42:48;98999.16;;;23.78;35.11
7478;BME280;3780;42.424;25.636;2022-07-11T06:45:17;98977.50;;;23.64;35.25
7478;BME280;3780;42.424;25.636;2022-07-11T06:47:43;99018.75;;;24.17;35.11
7478;BME280;3780;42.424;25.636;2022-07-11T06:50:08;99027.53;;;24.22;34.52
7478;BME280;3780;42.424;25.636;2022-07-11T06:52:34;98956.25;;;23.93;35.07
7478;BME280;3780;42.424;25.636;2022-07-11T06:55:00;99023.81;;;24.58;34.77
7478;BME280;3780;42.424;25.636;2022-07-11T06:57:26;99039.81;;;24.53;33.46
7478;BME280;3780;42.424;25.636;2022-07-11T06:59:53;98975.69;;;24.12;33.94
7478;BME280;3780;42.424;25.636;2022-07-11T07:02:18;99035.75;;;24.62;35.70
7478;BME280;3780;42.424;25.636;2022-07-11T07:04:44;98980.22;;;24.48;34.07
7478;BME280;3780;42.424;25.636;2022-07-11T07:07:09;98996.69;;;24.76;33.21
7478;BME280;3780;42.424;25.636;2022-07-11T07:09:35;99005.59;;;24.70;34.08
7478;BME280;3780;42.424;25.636;2022-07-11T07:12:00;99036.56;;;24.79;33.36
7478;BME280;3780;42.424;25.636;2022-07-11T07:14:26;99037.72;;;24.78;32.46
7478;BME280;3780;42.424;25.636;2022-07-11T07:16:51;99033.88;;;24.67;32.41
7478;BME280;3780;42.424;25.636;2022-07-11T07:19:18;99028.09;;;24.72;32.62
7478;BME280;3780;42.424;25.636;2022-07-11T07:21:43;99018.19;;;24.55;32.63
7478;BME280;3780;42.424;25.636;2022-07-11T07:24:09;99032.47;;;24.57;33.58
7478;BME280;3780;42.424;25.636;2022-07-11T07:26:35;99013.69;;;24.62;32.40
7478;BME280;3780;42.424;25.636;2022-07-11T07:29:00;99003.44;;;24.63;31.37
7478;BME280;3780;42.424;25.636;2022-07-11T07:31:26;98983.88;;;24.36;30.99
7478;BME280;3780;42.424;25.636;2022-07-11T07:33:51;98957.78;;;24.34;31.29
7478;BME280;3780;42.424;25.636;2022-07-11T07:36:17;99025.78;;;24.74;30.82
7478;BME280;3780;42.424;25.636;2022-07-11T07:38:43;98958.69;;;24.38;30.75
7478;BME280;3780;42.424;25.636;2022-07-11T07:41:12;98989.41;;;24.68;30.52
7478;BME280;3780;42.424;25.636;2022-07-11T07:43:38;98985.75;;;24.96;30.64
7478;BME280;3780;42.424;25.636;2022-07-11T07:46:04;98978.09;;;24.89;29.30
7478;BME280;3780;42.424;25.636;2022-07-11T07:48:30;99037.81;;;25.13;30.36
7478;BME280;3780;42.424;25.636;2022-07-11T07:50:55;99007.34;;;25.25;31.20
7478;BME280;3780;42.424;25.636;2022-07-11T07:53:21;99024.09;;;25.67;30.40
7478;BME280;3780;42.424;25.636;2022-07-11T07:55:46;99032.28;;;25.99;29.60
7478;BME280;3780;42.424;25.636;2022-07-11T07:58:12;98970.25;;;25.77;29.03
7478;BME280;3780;42.424;25.636;2022-07-11T08:00:37;99006.00;;;26.08;29.72
7478;BME280;3780;42.424;25.636;2022-07-11T08:03:21;99012.41;;;26.13;28.92
7478;BME280;3780;42.424;25.636;2022-07-11T08:05:47;99040.34;;;26.27;30.93
7478;BME280;3780;42.424;25.636;2022-07-11T08:08:12;99016.31;;;26.12;29.40
7478;BME280;3780;42.424;25.636;2022-07-11T08:10:38;99044.63;;;26.05;29.64
7478;BME280;3780;42.424;25.636;2022-07-11T08:13:04;98969.63;;;25.68;30.33
7478;BME280;3780;42.424;25.636;2022-07-11T08:15:30;99000.91;;;25.91;28.60
7478;BME280;3780;42.424;25.636;2022-07-11T08:18:15;99015.59;;;25.95;29.39
7478;BME280;3780;42.424;25.636;2022-07-11T08:20:41;99027.38;;;25.92;29.12
7478;BME280;3780;42.424;25.636;2022-07-11T08:23:06;99025.63;;;26.03;29.68
7478;BME280;3780;42.424;25.636;2022-07-11T08:25:32;99033.66;;;26.08;29.29
7478;BME280;3780;42.424;25.636;2022-07-11T08:27:57;99001.06;;;26.18;29.78
7478;BME280;3780;42.424;25.636;2022-07-11T08:30:23;99027.31;;;26.47;28.73
7478;BME280;3780;42.424;25.636;2022-07-11T08:32:49;99001.53;;;26.43;28.09
7478;BME280;3780;42.424;25.636;2022-07-11T08:35:15;99015.94;;;26.75;28.18
7478;BME280;3780;42.424;25.636;2022-07-11T08:37:43;99036.50;;;26.97;27.98
7478;BME280;3780;42.424;25.636;2022-07-11T08:40:10;99013.03;;;26.90;27.63
7478;BME280;3780;42.424;25.636;2022-07-11T08:42:41;99015.75;;;27.10;27.26
7478;BME280;3780;42.424;25.636;2022-07-11T08:45:10;99009.59;;;27.20;26.78
7478;BME280;3780;42.424;25.636;2022-07-11T08:47:36;99008.69;;;27.39;26.04
7478;BME280;3780;42.424;25.636;2022-07-11T08:50:02;99029.84;;;27.54;26.23
7478;BME280;3780;42.424;25.636;2022-07-11T08:52:30;99000.34;;;27.65;26.87
7478;BME280;3780;42.424;25.636;2022-07-11T08:54:56;99027.56;;;28.20;25.24
7478;BME280;3780;42.424;25.636;2022-07-11T08:57:22;98975.19;;;28.15;24.93
7478;BME280;3780;42.424;25.636;2022-07-11T08:59:49;99014.16;;;28.62;23.40
7478;BME280;3780;42.424;25.636;2022-07-11T09:02:33;99011.63;;;28.87;24.15
7478;BME280;3780;42.424;25.636;2022-07-11T09:04:59;99013.03;;;28.67;23.62
7478;BME280;3780;42.424;25.636;2022-07-11T09:07:25;99025.53;;;28.47;24.35
7478;BME280;3780;42.424;25.636;2022-07-11T09:09:51;99008.50;;;28.52;24.48
7478;BME280;3780;42.424;25.636;2022-07-11T09:12:17;98982.16;;;28.31;24.07
7478;BME280;3780;42.424;25.636;2022-07-11T09:14:47;99011.75;;;28.57;24.65
7478;BME280;3780;42.424;25.636;2022-07-11T09:17:13;99012.13;;;28.22;24.92
7478;BME280;3780;42.424;25.636;2022-07-11T09:19:39;99003.59;;;28.04;25.62
7478;BME280;3780;42.424;25.636;2022-07-11T09:25:06;98996.13;;;27.75;25.36
7478;BME280;3780;42.424;25.636;2022-07-11T09:28:02;99019.88;;;27.46;26.30
7478;BME280;3780;42.424;25.636;2022-07-11T09:30:38;99005.78;;;27.58;25.66
7478;BME280;3780;42.424;25.636;2022-07-11T09:33:12;98981.75;;;27.36;26.00
7478;BME280;3780;42.424;25.636;2022-07-11T09:35:42;98991.25;;;27.38;26.69
7478;BME280;3780;42.424;25.636;2022-07-11T09:38:12;99005.94;;;27.42;26.17
7478;BME280;3780;42.424;25.636;2022-07-11T09:40:42;99018.50;;;27.63;26.45
7478;BME280;3780;42.424;25.636;2022-07-11T09:43:08;99015.69;;;27.33;26.54
7478;BME280;3780;42.424;25.636;2022-07-11T09:45:34;99012.72;;;27.18;26.51
7478;BME280;3780;42.424;25.636;2022-07-11T09:48:08;99006.75;;;26.93;26.52
7478;BME280;3780;42.424;25.636;2022-07-11T09:50:34;98970.81;;;26.71;26.85
7478;BME280;3780;42.424;25.636;2022-07-11T09:53:06;99026.50;;;26.92;28.15
7478;BME280;3780;42.424;25.636;2022-07-11T09:55:37;98994.47;;;26.91;27.96
7478;BME280;3780;42.424;25.636;2022-07-11T09:58:08;99021.56;;;27.28;29.12
7478;BME280;3780;42.424;25.636;2022-07-11T10:00:38;99021.72;;;27.38;27.87
7478;BME280;3780;42.424;25.636;2022-07-11T10:03:08;98988.38;;;27.31;27.60
7478;BME280;3780;42.424;25.636;2022-07-11T10:05:34;99018.28;;;27.18;27.39
7478;BME280;3780;42.424;25.636;2022-07-11T10:08:00;98966.66;;;26.84;27.87
7478;BME280;3780;42.424;25.636;2022-07-11T10:10:27;99026.41;;;27.34;27.13
7478;BME280;3780;42.424;25.636;2022-07-11T10:12:55;99029.63;;;27.36;27.21
7478;BME280;3780;42.424;25.636;2022-07-11T10:15:41;98992.38;;;27.64;27.83
7478;BME280;3780;42.424;25.636;2022-07-11T10:18:29;99010.81;;;28.09;27.33
7478;BME280;3780;42.424;25.636;2022-07-11T10:21:06;98995.97;;;27.94;26.87
7478;BME280;3780;42.424;25.636;2022-07-11T10:23:52;98969.16;;;27.15;28.34
7478;BME280;3780;42.424;25.636;2022-07-11T10:26:42;99017.75;;;27.36;28.36
7478;BME280;3780;42.424;25.636;2022-07-11T10:29:17;99010.59;;;27.35;28.30
7478;BME280;3780;42.424;25.636;2022-07-11T10:32:02;98993.31;;;27.45;27.55
7478;BME280;3780;42.424;25.636;2022-07-11T10:34:29;98993.13;;;27.87;29.56
7478;BME280;3780;42.424;25.636;2022-07-11T10:37:18;98999.25;;;28.37;25.95
7478;BME280;3780;42.424;25.636;2022-07-11T10:39:58;99012.75;;;28.83;26.67
7478;BME280;3780;42.424;25.636;2022-07-11T10:42:37;99020.25;;;29.23;24.96
7478;BME280;3780;42.424;25.636;2022-07-11T10:45:07;99017.59;;;29.41;25.07
7478;BME280;3780;42.424;25.636;2022-07-11T10:47:40;99016.38;;;29.38;24.83
7478;BME280;3780;42.424;25.636;2022-07-11T10:50:32;99016.03;;;29.47;24.85
7478;BME280;3780;42.424;25.636;2022-07-11T10:53:09;98992.97;;;29.43;25.16
7478;BME280;3780;42.424;25.636;2022-07-11T10:55:52;98955.66;;;28.85;24.59
7478;BME280;3780;42.424;25.636;2022-07-11T10:58:24;99015.16;;;29.36;24.58
7478;BME280;3780;42.424;25.636;2022-07-11T11:01:09;99011.81;;;29.12;25.31
7478;BME280;3780;42.424;25.636;2022-07-11T11:03:35;99012.38;;;29.36;24.53
7478;BME280;3780;42.424;25.636;2022-07-11T11:06:03;99013.47;;;29.86;23.50
7478;BME280;3780;42.424;25.636;2022-07-11T11:11:07;99010.16;;;30.64;24.64
7478;BME280;3780;42.424;25.636;2022-07-11T11:13:35;98979.50;;;30.50;23.39
7478;BME280;3780;42.424;25.636;2022-07-11T11:16:02;98985.41;;;30.23;23.28
7478;BME280;3780;42.424;25.636;2022-07-11T11:18:32;99000.53;;;30.26;23.16
7478;BME280;3780;42.424;25.636;2022-07-11T11:23:32;99014.47;;;30.29;24.16
7478;BME280;3780;42.424;25.636;2022-07-11T11:26:15;99009.34;;;30.60;22.69
7478;BME280;3780;42.424;25.636;2022-07-11T11:29:00;99015.66;;;30.46;22.82
7478;BME280;3780;42.424;25.636;2022-07-11T11:31:28;98965.03;;;29.87;22.78
7478;BME280;3780;42.424;25.636;2022-07-11T11:33:59;98969.84;;;30.04;22.73
7478;BME280;3780;42.424;25.636;2022-07-11T11:36:25;98988.56;;;30.08;23.10
7478;BME280;3780;42.424;25.636;2022-07-11T11:38:51;98986.63;;;29.42;24.11
7478;BME280;3780;42.424;25.636;2022-07-11T11:41:29;99005.75;;;29.51;24.90
7478;BME280;3780;42.424;25.636;2022-07-11T11:43:58;98949.78;;;29.49;23.32
7478;BME280;3780;42.424;25.636;2022-07-11T11:46:28;98916.25;;;29.20;24.07
7478;BME280;3780;42.424;25.636;2022-07-11T11:48:55;98991.97;;;29.72;23.61
7478;BME280;3780;42.424;25.636;2022-07-11T11:51:21;98979.69;;;29.81;23.10
7478;BME280;3780;42.424;25.636;2022-07-11T11:53:53;99005.72;;;30.34;23.25
7478;BME280;3780;42.424;25.636;2022-07-11T11:56:24;98946.75;;;29.90;22.71
7478;BME280;3780;42.424;25.636;2022-07-11T11:59:16;98947.09;;;29.70;22.98
7478;BME280;3780;42.424;25.636;2022-07-11T12:01:46;98975.31;;;29.80;24.00
7478;BME280;3780;42.424;25.636;2022-07-11T12:04:13;98944.28;;;29.60;23.16
7478;BME280;3780;42.424;25.636;2022-07-11T12:06:45;99001.09;;;29.73;24.71
7478;BME280;3780;42.424;25.636;2022-07-11T12:09:14;98974.13;;;29.77;24.27
7478;BME280;3780;42.424;25.636;2022-07-11T12:11:46;98984.03;;;29.74;24.31
7478;BME280;3780;42.424;25.636;2022-07-11T12:14:13;99002.28;;;29.72;24.68
7478;BME280;3780;42.424;25.636;2022-07-11T12:16:41;99004.09;;;29.39;25.42
7478;BME280;3780;42.424;25.636;2022-07-11T12:19:08;99003.63;;;29.34;25.53
7478;BME280;3780;42.424;25.636;2022-07-11T12:21:36;98920.97;;;28.61;25.80
7478;BME280;3780;42.424;25.636;2022-07-11T12:24:04;98961.19;;;28.78;26.05
7478;BME280;3780;42.424;25.636;2022-07-11T12:26:33;99002.53;;;28.90;26.12
7478;BME280;3780;42.424;25.636;2022-07-11T12:29:16;98993.31;;;28.79;25.97
7478;BME280;3780;42.424;25.636;2022-07-11T12:31:55;98993.63;;;28.71;26.22
7478;BME280;3780;42.424;25.636;2022-07-11T12:36:48;98969.19;;;28.43;26.47
7478;BME280;3780;42.424;25.636;2022-07-11T12:39:24;98998.66;;;28.58;27.36
7478;BME280;3780;42.424;25.636;2022-07-11T12:41:56;98960.22;;;28.23;25.94
7478;BME280;3780;42.424;25.636;2022-07-11T12:44:30;98951.31;;;28.03;26.67
7478;BME280;3780;42.424;25.636;2022-07-11T12:47:16;98975.13;;;28.08;27.58
7478;BME280;3780;42.424;25.636;2022-07-11T12:49:43;98995.09;;;28.20;28.14
7478;BME280;3780;42.424;25.636;2022-07-11T12:52:14;98917.00;;;27.47;26.88
7478;BME280;3780;42.424;25.636;2022-07-11T12:54:40;98937.50;;;27.43;28.40
7478;BME280;3780;42.424;25.636;2022-07-11T12:57:07;98986.44;;;27.62;28.42
7478;BME280;3780;42.424;25.636;2022-07-11T12:59:34;98943.69;;;27.33;27.50
7478;BME280;3780;42.424;25.636;2022-07-11T13:02:03;99002.38;;;27.68;27.77
7478;BME280;3780;42.424;25.636;2022-07-11T13:07:24;98995.16;;;27.64;27.77
7478;BME280;3780;42.424;25.636;2022-07-11T13:10:15;98955.06;;;27.54;27.92
7478;BME280;3780;42.424;25.636;2022-07-11T13:12:42;98992.72;;;28.22;27.01
7478;BME280;3780;42.424;25.636;2022-07-11T13:15:09;98993.75;;;28.44;28.23
7478;BME280;3780;42.424;25.636;2022-07-11T13:17:36;98942.22;;;28.40;27.19
7478;BME280;3780;42.424;25.636;2022-07-11T13:20:07;98986.97;;;28.82;26.34
7478;BME280;3780;42.424;25.636;2022-07-11T13:22:34;98980.50;;;29.15;26.91
7478;BME280;3780;42.424;25.636;2022-07-11T13:25:00;98928.84;;;29.04;25.51
7478;BME280;3780;42.424;25.636;2022-07-11T13:27:25;98985.78;;;29.31;25.65
7478;BME280;3780;42.424;25.636;2022-07-11T13:29:51;98995.44;;;29.48;25.94